Phillips, Maine
Current Conditions -  °F | °C
As of 3:35 AM on Friday 31 Oct 2014 (Local Time) from KWVL Reporting Station
Overcast Overcast  
Wind Chill: 37°   Ceiling: 4800
Heat Index: 37°   Visibility: 10mi
Dew Point: 30°   Wind: 3mph
Humidity: 75%   Direction: 290°WNW
Pressure: 29.98"   Gusts: NA
Location:  44.82°N, 70.34°W
Report Text: KWVL 310735Z 29003KT 10SM OVC048 03/M01 A2998 RMK AO1
Loading
Personal Weather Stations






























Interactive Weather Map
Tropical Storm Tracking
New forecast layout! Learn more

10-Day Weather Forecast

Advertisements
Track Severe Weather on mobile